TimeCST,TemperatureF,Dew PointF,Humidity,Sea Level PressureIn,VisibilityMPH,Wind Direction,Wind SpeedMPH,Gust SpeedMPH,PrecipitationIn,Events,Conditions,WindDirDegrees,DateUTC
12:15 AM,64.4,48.2,56,30.25,10.0,North,10.4,-,N/A,,Overcast,10,2013-02-16 06:15:00
12:55 AM,62.6,51.8,68,30.27,10.0,North,12.7,27.6,N/A,,Overcast,350,2013-02-16 06:55:00
1:15 AM,60.8,51.8,72,30.27,10.0,North,13.8,26.5,N/A,,Overcast,350,2013-02-16 07:15:00
1:35 AM,60.8,50.0,68,30.28,10.0,North,16.1,24.2,N/A,,Overcast,10,2013-02-16 07:35:00
1:55 AM,60.8,50.0,68,30.27,10.0,North,17.3,23.0,N/A,,Overcast,360,2013-02-16 07:55:00
2:15 AM,60.8,50.0,68,30.28,10.0,North,18.4,26.5,N/A,,Overcast,360,2013-02-16 08:15:00
2:35 AM,59.0,50.0,72,30.28,10.0,North,18.4,31.1,N/A,,Overcast,360,2013-02-16 08:35:00
2:55 AM,59.0,48.2,67,30.30,10.0,North,18.4,29.9,N/A,,Overcast,360,2013-02-16 08:55:00
3:35 AM,59.0,48.2,67,30.30,10.0,North,17.3,28.8,N/A,,Overcast,350,2013-02-16 09:35:00
3:55 AM,57.2,46.4,67,30.32,10.0,North,16.1,26.5,N/A,,Overcast,350,2013-02-16 09:55:00
4:15 AM,57.2,46.4,67,30.32,10.0,North,16.1,23.0,N/A,,Overcast,350,2013-02-16 10:15:00
4:35 AM,57.2,48.2,72,30.33,10.0,North,13.8,20.7,N/A,,Overcast,350,2013-02-16 10:35:00
5:35 AM,57.2,48.2,72,30.35,10.0,North,9.2,20.7,N/A,,Overcast,350,2013-02-16 11:35:00
5:55 AM,57.2,46.4,67,30.36,10.0,North,11.5,17.3,N/A,,Mostly Cloudy,350,2013-02-16 11:55:00
6:15 AM,55.4,46.4,72,30.36,10.0,NNW,12.7,19.6,N/A,,Mostly Cloudy,340,2013-02-16 12:15:00
6:35 AM,55.4,44.6,67,30.37,10.0,NNW,13.8,-,N/A,,Mostly Cloudy,340,2013-02-16 12:35:00
6:55 AM,55.4,42.8,63,30.38,10.0,North,15.0,-,N/A,,Partly Cloudy,360,2013-02-16 12:55:00
7:35 AM,55.4,42.8,63,30.40,10.0,North,12.7,-,N/A,,Clear,360,2013-02-16 13:35:00
7:55 AM,55.4,41.0,58,30.40,10.0,North,8.1,16.1,N/A,,Clear,360,2013-02-16 13:55:00
8:15 AM,57.2,41.0,55,30.41,10.0,North,8.1,-,N/A,,Clear,350,2013-02-16 14:15:00
8:35 AM,57.2,41.0,55,30.41,10.0,North,11.5,17.3,N/A,,Clear,360,2013-02-16 14:35:00
8:55 AM,57.2,42.8,59,30.43,10.0,NNW,8.1,16.1,N/A,,Clear,340,2013-02-16 14:55:00
9:15 AM,57.2,42.8,59,30.43,10.0,North,11.5,19.6,N/A,,Clear,350,2013-02-16 15:15:00
9:35 AM,57.2,42.8,59,30.45,10.0,North,10.4,17.3,N/A,,Clear,350,2013-02-16 15:35:00
9:55 AM,57.2,41.0,55,30.45,10.0,North,9.2,19.6,N/A,,Clear,350,2013-02-16 15:55:00
10:15 AM,57.2,41.0,55,30.45,10.0,NNW,10.4,-,N/A,,Clear,340,2013-02-16 16:15:00
10:35 AM,57.2,41.0,55,30.46,10.0,North,8.1,16.1,N/A,,Clear,350,2013-02-16 16:35:00
10:55 AM,57.2,41.0,55,30.46,10.0,NNW,8.1,16.1,N/A,,Clear,340,2013-02-16 16:55:00
11:15 AM,57.2,41.0,55,30.45,10.0,North,8.1,15.0,N/A,,Clear,350,2013-02-16 17:15:00
11:35 AM,57.2,39.2,51,30.45,10.0,North,8.1,17.3,N/A,,Clear,350,2013-02-16 17:35:00
11:55 AM,57.2,39.2,51,30.45,10.0,North,10.4,-,N/A,,Clear,360,2013-02-16 17:55:00
12:15 PM,57.2,39.2,51,30.44,10.0,NNW,6.9,13.8,N/A,,Clear,340,2013-02-16 18:15:00
12:35 PM,57.2,39.2,51,30.43,10.0,North,10.4,-,N/A,,Clear,360,2013-02-16 18:35:00
12:55 PM,57.2,39.2,51,30.42,10.0,Variable,4.6,-,N/A,,Clear,0,2013-02-16 18:55:00
1:15 PM,57.2,39.2,51,30.40,10.0,North,8.1,-,N/A,,Clear,350,2013-02-16 19:15:00
1:35 PM,57.2,39.2,51,30.39,10.0,North,6.9,13.8,N/A,,Clear,350,2013-02-16 19:35:00
1:55 PM,57.2,39.2,51,30.38,10.0,North,5.8,-,N/A,,Clear,350,2013-02-16 19:55:00
2:15 PM,57.2,37.4,48,30.37,10.0,North,6.9,-,N/A,,Clear,350,2013-02-16 20:15:00
2:35 PM,57.2,37.4,48,30.37,10.0,NNW,5.8,-,N/A,,Clear,340,2013-02-16 20:35:00
2:55 PM,59.0,35.6,42,30.36,10.0,North,6.9,-,N/A,,Clear,360,2013-02-16 20:55:00
3:15 PM,59.0,35.6,42,30.35,10.0,North,6.9,-,N/A,,Clear,360,2013-02-16 21:15:00
3:35 PM,59.0,35.6,42,30.35,10.0,Variable,4.6,-,N/A,,Clear,0,2013-02-16 21:35:00
3:55 PM,57.2,33.8,41,30.34,10.0,Variable,5.8,-,N/A,,Clear,0,2013-02-16 21:55:00
4:15 PM,57.2,33.8,41,30.34,10.0,North,5.8,-,N/A,,Clear,10,2013-02-16 22:15:00
4:35 PM,57.2,35.6,44,30.33,10.0,NNE,5.8,-,N/A,,Clear,20,2013-02-16 22:35:00
4:55 PM,57.2,35.6,44,30.33,10.0,Variable,3.5,-,N/A,,Clear,0,2013-02-16 22:55:00
5:15 PM,57.2,35.6,44,30.33,10.0,North,6.9,-,N/A,,Clear,10,2013-02-16 23:15:00
5:35 PM,57.2,33.8,41,30.32,10.0,Variable,5.8,-,N/A,,Clear,0,2013-02-16 23:35:00
5:55 PM,57.2,33.8,41,30.32,10.0,NE,5.8,-,N/A,,Clear,40,2013-02-16 23:55:00
6:15 PM,59.0,35.6,42,30.32,10.0,Variable,4.6,-,N/A,,Clear,0,2013-02-17 00:15:00
6:35 PM,59.0,33.8,39,30.31,10.0,NE,6.9,-,N/A,,Clear,50,2013-02-17 00:35:00
6:55 PM,59.0,35.6,42,30.32,10.0,East,5.8,-,N/A,,Clear,90,2013-02-17 00:55:00
7:15 PM,59.0,35.6,42,30.32,10.0,East,5.8,-,N/A,,Clear,90,2013-02-17 01:15:00
7:35 PM,59.0,37.4,45,30.32,10.0,East,6.9,-,N/A,,Clear,100,2013-02-17 01:35:00
7:55 PM,59.0,35.6,42,30.32,10.0,ENE,6.9,-,N/A,,Clear,70,2013-02-17 01:55:00
8:15 PM,59.0,37.4,45,30.33,10.0,East,8.1,-,N/A,,Clear,80,2013-02-17 02:15:00
8:35 PM,59.0,35.6,42,30.33,10.0,East,8.1,-,N/A,,Clear,100,2013-02-17 02:35:00
8:55 PM,59.0,39.2,48,30.33,10.0,ESE,9.2,-,N/A,,Clear,110,2013-02-17 02:55:00
9:15 PM,59.0,37.4,45,30.33,10.0,ESE,9.2,-,N/A,,Clear,120,2013-02-17 03:15:00
9:35 PM,59.0,39.2,48,30.33,10.0,ESE,9.2,-,N/A,,Clear,110,2013-02-17 03:35:00
9:55 PM,59.0,39.2,48,30.32,10.0,East,9.2,-,N/A,,Clear,90,2013-02-17 03:55:00
10:15 PM,60.8,37.4,42,30.32,10.0,East,10.4,-,N/A,,Clear,90,2013-02-17 04:15:00
10:35 PM,60.8,39.2,45,30.32,10.0,East,10.4,-,N/A,,Clear,90,2013-02-17 04:35:00
10:55 PM,60.8,39.2,45,30.31,10.0,East,10.4,-,N/A,,Clear,80,2013-02-17 04:55:00
11:15 PM,60.8,39.2,45,30.31,10.0,ESE,11.5,-,N/A,,Clear,120,2013-02-17 05:15:00
11:35 PM,60.8,39.2,45,30.31,10.0,ESE,10.4,-,N/A,,Clear,120,2013-02-17 05:35:00
11:55 PM,60.8,39.2,45,30.30,10.0,SE,10.4,-,N/A,,Clear,130,2013-02-17 05:55:00